Time;durP1;ratioP1;P1;durP2;ratioP2;P2;SDS_P1;SDS_P2;PMS_P1;PMS_P2;Temp;Humidity;BMP_temperature;BMP_pressure;BME280_temperature;BME280_humidity;BME280_pressure;Samples;Min_cycle;Max_cycle;Signal;HPM_P1;HPM_P2
2021/04/19 00:00:37;;;;;;;10.27;5.43;;;4.80;99.90;;;;;;20667412;28;20042;-75
2021/04/19 00:10:38;;;;;;;14.30;6.33;;;4.60;99.90;;;;;;20665348;28;20042;-75
2021/04/19 00:20:39;;;;;;;11.90;6.60;;;4.20;99.90;;;;;;20665631;28;20117;-75
2021/04/19 00:30:40;;;;;;;11.13;6.25;;;3.80;99.90;;;;;;20664410;28;20069;-75
2021/04/19 00:40:41;;;;;;;13.57;6.63;;;3.50;99.90;;;;;;20664278;28;20117;-75
2021/04/19 00:50:43;;;;;;;12.35;5.75;;;3.20;99.90;;;;;;20663561;28;20046;-75
2021/04/19 01:00:44;;;;;;;11.30;6.32;;;3.40;99.90;;;;;;20661653;28;20050;-75
2021/04/19 01:10:45;;;;;;;9.95;5.45;;;3.30;99.90;;;;;;20663046;28;20130;-75
2021/04/19 01:20:49;;;;;;;13.38;6.65;;;3.30;99.90;;;;;;20662161;28;20050;-75
2021/04/19 01:30:51;;;;;;;13.77;7.13;;;3.10;99.90;;;;;;20676894;28;20121;-75
2021/04/19 01:40:55;;;;;;;15.05;6.65;;;3.10;99.90;;;;;;20649287;28;20050;-76
2021/04/19 01:50:56;;;;;;;11.68;5.80;;;3.00;99.90;;;;;;20676075;28;20046;-75
2021/04/19 02:00:59;;;;;;;13.70;5.55;;;2.80;99.90;;;;;;20675393;28;20038;-75
2021/04/19 02:11:43;;;;;;;13.05;6.72;;;2.80;99.90;;;;;;20674821;28;20085;-75
2021/04/19 02:21:51;;;;;;;17.73;5.97;;;2.50;99.90;;;;;;20674825;28;20168;-75
2021/04/19 02:31:57;;;;;;;14.70;6.85;;;2.20;99.90;;;;;;20674063;28;20049;-75
2021/04/19 02:42:00;;;;;;;11.60;6.35;;;2.10;99.90;;;;;;20688340;28;20038;-74
2021/04/19 02:52:05;;;;;;;14.65;6.18;;;2.10;99.90;;;;;;20654502;28;20046;-75
2021/04/19 03:02:08;;;;;;;22.35;6.13;;;2.30;99.90;;;;;;20696715;22;20073;-77
2021/04/19 03:12:12;;;;;;;16.58;6.05;;;2.00;99.90;;;;;;20752378;28;20033;-76
2021/04/19 03:22:22;;;;;;;12.70;6.03;;;1.70;99.90;;;;;;20763974;28;20432;-77
2021/04/19 03:32:35;;;;;;;12.25;5.80;;;1.40;99.90;;;;;;20682299;28;20034;-77
2021/04/19 03:42:41;;;;;;;15.07;6.63;;;1.30;99.90;;;;;;20745790;28;20581;-77
2021/04/19 03:52:50;;;;;;;11.73;6.22;;;1.20;99.90;;;;;;20747747;28;20033;-77
2021/04/19 04:02:55;;;;;;;19.25;8.40;;;1.30;99.90;;;;;;20729687;28;20065;-76
2021/04/19 04:13:14;;;;;;;;;;;1.20;99.90;;;;;;20746849;28;20504;-74
2021/04/19 04:23:17;;;;;;;18.73;9.60;;;1.00;99.90;;;;;;20746181;28;19956;-76
2021/04/19 04:33:18;;;;;;;14.35;7.28;;;1.00;99.90;;;;;;20746687;28;20036;-75
2021/04/19 04:43:28;;;;;;;15.30;7.30;;;1.00;99.90;;;;;;20751141;28;20112;-76
2021/04/19 04:53:37;;;;;;;23.75;9.73;;;0.90;99.90;;;;;;20743724;28;20045;-75
2021/04/19 05:03:40;;;;;;;21.80;9.85;;;0.60;99.90;;;;;;20744123;28;20038;-74
2021/04/19 05:13:41;;;;;;;12.32;6.65;;;0.80;99.90;;;;;;20767111;28;20455;-74
2021/04/19 05:23:42;;;;;;;17.17;9.02;;;1.00;99.90;;;;;;20792157;28;20488;-78
2021/04/19 05:33:44;;;;;;;25.77;10.23;;;0.90;99.90;;;;;;20783624;28;20034;-77
2021/04/19 05:43:45;;;;;;;15.45;8.60;;;1.30;99.90;;;;;;20781844;28;20131;-77
2021/04/19 05:53:49;;;;;;;;;;;1.70;99.90;;;;;;20752592;28;20522;-77
2021/04/19 06:04:04;;;;;;;14.35;7.32;;;2.30;99.90;;;;;;20796288;28;19912;-76
2021/04/19 06:14:11;;;;;;;20.20;8.70;;;2.90;99.90;;;;;;20822098;28;20037;-77
2021/04/19 06:24:12;;;;;;;18.40;8.23;;;3.20;99.90;;;;;;20794450;28;20528;-77
2021/04/19 06:34:15;;;;;;;16.35;7.90;;;3.40;99.90;;;;;;20758183;28;20040;-78
2021/04/19 06:44:16;;;;;;;17.35;8.38;;;4.40;99.90;;;;;;20756597;28;20060;-78
2021/04/19 06:54:16;;;;;;;14.30;7.10;;;5.80;99.90;;;;;;20738331;28;20069;-77
2021/04/19 07:04:26;;;;;;;12.10;6.90;;;6.40;99.90;;;;;;20776838;28;20037;-77
2021/04/19 07:14:28;;;;;;;14.50;7.80;;;7.10;99.90;;;;;;20753256;28;20165;-77
2021/04/19 07:24:29;;;;;;;13.18;7.72;;;7.50;99.90;;;;;;20752118;28;20037;-76
2021/04/19 07:34:31;;;;;;;16.93;7.37;;;8.40;99.90;;;;;;20751557;28;20096;-77
2021/04/19 07:44:40;;;;;;;17.70;7.68;;;9.10;99.90;;;;;;20749039;28;20504;-77
2021/04/19 07:54:41;;;;;;;14.77;8.40;;;9.30;99.90;;;;;;20748867;28;20041;-77
2021/04/19 08:04:46;;;;;;;17.43;9.77;;;9.60;99.90;;;;;;20748039;28;20038;-77
2021/04/19 08:14:54;;;;;;;18.77;10.27;;;10.10;99.90;;;;;;20747656;28;20399;-77
2021/04/19 08:25:19;;;;;;;16.25;9.23;;;11.90;99.90;;;;;;20746480;28;20046;-78
2021/04/19 08:35:21;;;;;;;18.63;9.35;;;12.50;99.90;;;;;;20763126;28;20038;-77
2021/04/19 08:45:24;;;;;;;16.80;8.70;;;13.10;99.90;;;;;;20817993;28;20029;-77
2021/04/19 08:55:25;;;;;;;15.63;8.05;;;14.30;99.90;;;;;;20774205;28;20056;-77
2021/04/19 09:05:27;;;;;;;17.27;8.85;;;13.50;99.90;;;;;;20783570;28;20383;-76
2021/04/19 09:15:29;;;;;;;13.60;8.17;;;13.20;99.90;;;;;;20782716;28;20459;-76
2021/04/19 09:25:42;;;;;;;12.48;6.18;;;13.00;99.90;;;;;;20862196;22;20553;-74
2021/04/19 09:35:45;;;;;;;12.27;6.53;;;12.80;99.90;;;;;;20906915;28;20406;-75
2021/04/19 09:45:46;;;;;;;11.38;6.25;;;12.10;99.90;;;;;;20905441;28;20098;-75
2021/04/19 09:55:47;;;;;;;17.23;6.53;;;12.20;99.90;;;;;;20906301;28;20491;-74
2021/04/19 10:05:54;;;;;;;12.00;6.25;;;11.50;99.90;;;;;;20910401;28;20044;-75
2021/04/19 10:16:05;;;;;;;15.00;6.07;;;11.30;99.90;;;;;;20900665;28;20029;-74
2021/04/19 10:26:06;;;;;;;11.00;6.35;;;11.30;99.90;;;;;;20859448;28;20037;-75
2021/04/19 10:36:27;;;;;;;12.18;6.20;;;11.70;99.90;;;;;;20879301;28;20392;-75
2021/04/19 10:46:33;;;;;;;11.60;5.72;;;11.10;99.90;;;;;;20872194;28;20038;-75
2021/04/19 10:56:35;;;;;;;7.72;5.30;;;11.60;99.90;;;;;;20865873;28;20504;-74
2021/04/19 11:06:37;;;;;;;11.50;5.65;;;11.00;99.90;;;;;;20912078;28;20511;-74
2021/04/19 11:17:04;;;;;;;15.93;6.10;;;11.10;99.90;;;;;;20856927;28;20045;-74
2021/04/19 11:27:07;;;;;;;7.18;5.15;;;10.90;99.90;;;;;;20884417;28;20135;-74
2021/04/19 11:37:27;;;;;;;9.15;4.68;;;11.20;99.90;;;;;;20914390;28;20028;-74
2021/04/19 11:47:28;;;;;;;10.07;5.50;;;11.40;99.90;;;;;;20849805;28;20376;-74
2021/04/19 11:57:29;;;;;;;9.30;4.83;;;11.90;99.90;;;;;;20830587;28;20086;-74
2021/04/19 12:07:29;;;;;;;11.10;5.70;;;11.50;99.90;;;;;;20906543;28;20041;-73
2021/04/19 12:17:30;;;;;;;10.30;5.18;;;11.80;99.90;;;;;;20911871;28;20487;-74
2021/04/19 12:27:31;;;;;;;9.85;5.32;;;11.70;99.90;;;;;;20906959;28;20040;-75
2021/04/19 12:37:32;;;;;;;9.70;4.50;;;12.10;99.90;;;;;;20905773;28;20116;-75
2021/04/19 12:47:34;;;;;;;5.80;3.75;;;12.00;99.90;;;;;;20877164;28;20068;-74
2021/04/19 12:57:35;;;;;;;8.32;4.40;;;12.40;99.90;;;;;;20907442;28;20036;-74
2021/04/19 13:07:36;;;;;;;7.82;4.65;;;12.50;99.90;;;;;;20882033;28;20047;-74
2021/04/19 13:17:37;;;;;;;7.00;4.05;;;12.70;99.90;;;;;;20819745;28;20037;-74
2021/04/19 13:27:38;;;;;;;9.27;4.93;;;13.20;99.90;;;;;;20849555;28;20037;-74
2021/04/19 13:37:39;;;;;;;6.97;3.72;;;13.10;99.90;;;;;;20848566;28;20037;-74
2021/04/19 13:47:40;;;;;;;9.10;4.60;;;13.00;99.90;;;;;;20862112;28;20415;-74
2021/04/19 13:57:41;;;;;;;9.18;3.70;;;12.40;99.90;;;;;;20858946;28;20040;-74
2021/04/19 14:07:44;;;;;;;10.15;4.00;;;12.40;99.90;;;;;;20855295;28;20045;-74
2021/04/19 14:17:45;;;;;;;7.10;4.30;;;12.70;99.90;;;;;;20873630;28;20044;-74
2021/04/19 14:27:46;;;;;;;6.32;3.80;;;13.00;99.90;;;;;;20901099;28;20128;-74
2021/04/19 14:37:47;;;;;;;6.55;4.10;;;13.20;99.90;;;;;;20872102;28;20033;-73
2021/04/19 14:47:48;;;;;;;8.25;5.40;;;13.60;99.90;;;;;;20861155;28;20051;-74
2021/04/19 14:57:48;;;;;;;9.48;5.03;;;12.90;99.90;;;;;;20876296;28;20691;-74
2021/04/19 15:07:51;;;;;;;10.18;5.43;;;13.40;99.90;;;;;;20857122;28;20095;-74
2021/04/19 15:17:54;;;;;;;8.20;4.10;;;13.20;99.90;;;;;;20860101;28;20100;-74
2021/04/19 15:27:55;;;;;;;8.48;3.88;;;12.90;99.90;;;;;;20796122;23;20065;-78
2021/04/19 15:37:56;;;;;;;8.45;3.63;;;13.10;99.90;;;;;;20672463;28;20055;-79
2021/04/19 15:47:57;;;;;;;7.53;3.87;;;13.00;99.90;;;;;;20697289;28;20400;-79
2021/04/19 15:57:57;;;;;;;6.80;3.28;;;12.80;99.90;;;;;;20655946;28;20050;-78
2021/04/19 16:07:58;;;;;;;6.95;3.17;;;13.00;99.90;;;;;;20680703;28;20044;-79
2021/04/19 16:17:59;;;;;;;4.20;2.65;;;12.90;99.90;;;;;;20750773;28;20377;-78
2021/04/19 16:28:00;;;;;;;4.32;2.90;;;13.20;99.90;;;;;;20738068;28;20416;-78
2021/04/19 16:38:01;;;;;;;4.78;2.95;;;13.10;99.90;;;;;;20748572;28;20435;-78
2021/04/19 16:48:06;;;;;;;5.45;2.55;;;12.60;99.90;;;;;;20720944;28;20425;-77
2021/04/19 16:58:07;;;;;;;4.45;2.75;;;12.30;99.90;;;;;;20741763;28;20749;-77
2021/04/19 17:08:08;;;;;;;7.82;3.17;;;12.10;99.90;;;;;;20719108;28;20053;-77
2021/04/19 17:18:09;;;;;;;6.73;4.10;;;11.80;99.90;;;;;;20725874;28;20586;-77
2021/04/19 17:28:10;;;;;;;8.27;4.93;;;11.70;99.90;;;;;;20688849;28;20058;-75
2021/04/19 17:38:12;;;;;;;9.88;5.00;;;11.60;99.90;;;;;;20645555;28;20045;-77
2021/04/19 17:48:13;;;;;;;10.27;5.60;;;11.50;99.90;;;;;;20684004;28;20054;-77
2021/04/19 17:58:14;;;;;;;16.33;6.40;;;11.30;99.90;;;;;;20724140;28;20285;-77
2021/04/19 18:08:15;;;;;;;12.67;5.50;;;11.10;99.90;;;;;;20722787;28;20049;-77
2021/04/19 18:18:17;;;;;;;10.35;5.78;;;10.90;99.90;;;;;;20705009;28;20049;-76
2021/04/19 18:28:19;;;;;;;10.05;5.63;;;10.70;99.90;;;;;;20740020;28;20050;-77
2021/04/19 18:38:21;;;;;;;10.95;5.22;;;10.50;99.90;;;;;;20729883;28;20161;-78
2021/04/19 18:48:22;;;;;;;9.57;5.07;;;10.20;99.90;;;;;;20677403;28;20061;-77
2021/04/19 18:58:24;;;;;;;11.57;6.17;;;10.00;99.90;;;;;;20642121;28;20517;-77
2021/04/19 19:08:25;;;;;;;11.43;6.73;;;9.10;99.90;;;;;;20714753;28;20120;-77
2021/04/19 19:18:26;;;;;;;8.00;5.03;;;8.50;99.90;;;;;;20725599;28;20045;-78
2021/04/19 19:28:28;;;;;;;14.93;8.55;;;8.50;99.90;;;;;;20735432;28;20054;-78
2021/04/19 19:38:29;;;;;;;14.95;8.75;;;8.00;99.90;;;;;;20739876;28;20049;-78
2021/04/19 19:48:31;;;;;;;20.53;10.27;;;7.60;99.90;;;;;;20735084;28;20038;-78
2021/04/19 19:58:32;;;;;;;23.75;11.18;;;7.20;99.90;;;;;;20733968;28;20591;-77
2021/04/19 20:08:32;;;;;;;16.57;9.90;;;7.00;99.90;;;;;;20704472;28;20065;-78
2021/04/19 20:18:35;;;;;;;19.40;10.13;;;7.00;99.90;;;;;;20698037;28;20121;-78
2021/04/19 20:28:37;;;;;;;28.17;13.07;;;6.80;99.90;;;;;;20697422;28;20061;-78
2021/04/19 20:38:38;;;;;;;19.27;11.17;;;6.70;99.90;;;;;;20741919;28;20038;-79
2021/04/19 20:48:39;;;;;;;17.05;7.20;;;6.30;99.90;;;;;;20720316;28;20042;-78
2021/04/19 20:58:40;;;;;;;;;;;6.40;99.90;;;;;;20720127;28;20412;-77
2021/04/19 21:08:41;;;;;;;15.38;7.50;;;6.70;99.90;;;;;;20704369;28;19914;-77
2021/04/19 21:18:42;;;;;;;12.87;6.33;;;6.40;99.90;;;;;;20703611;28;20046;-78
2021/04/19 21:28:43;;;;;;;12.77;7.33;;;6.20;99.90;;;;;;20900088;22;20049;-75
2021/04/19 21:38:43;;;;;;;15.93;8.43;;;6.00;99.90;;;;;;20818545;28;20034;-75
2021/04/19 21:48:44;;;;;;;14.73;6.40;;;5.60;99.90;;;;;;20823765;28;20053;-75
2021/04/19 21:58:45;;;;;;;16.37;8.23;;;5.70;99.90;;;;;;20828586;28;20124;-75
2021/04/19 22:08:46;;;;;;;16.07;7.90;;;6.10;99.90;;;;;;20832447;28;20076;-75
2021/04/19 22:18:47;;;;;;;16.20;8.80;;;6.30;99.90;;;;;;20838699;28;20515;-75
2021/04/19 22:28:48;;;;;;;26.47;9.23;;;6.00;99.90;;;;;;20838031;28;20045;-75
2021/04/19 22:38:49;;;;;;;16.00;8.53;;;5.70;99.90;;;;;;20833016;28;20060;-75
2021/04/19 22:48:49;;;;;;;14.43;7.60;;;5.50;99.90;;;;;;20778498;28;20037;-75
2021/04/19 22:58:50;;;;;;;17.30;8.70;;;5.10;99.90;;;;;;20753936;28;20037;-75
2021/04/19 23:08:51;;;;;;;14.23;8.33;;;5.00;99.90;;;;;;20753127;28;20136;-75
2021/04/19 23:18:52;;;;;;;17.80;8.10;;;4.70;99.90;;;;;;20752653;28;20132;-74
2021/04/19 23:28:53;;;;;;;18.07;9.77;;;4.60;99.90;;;;;;20751742;28;20511;-75
2021/04/19 23:38:53;;;;;;;17.20;8.77;;;4.30;99.90;;;;;;20749638;28;20087;-75
2021/04/19 23:48:54;;;;;;;17.77;8.37;;;4.50;99.90;;;;;;20732718;28;20045;-75
2021/04/19 23:58:55;;;;;;;23.00;11.23;;;4.20;99.90;;;;;;20749231;28;20424;-75
